createdAt,value
2022-12-26T00:01:12.301Z,95311.16
2022-12-26T00:03:40.367Z,95319.66
2022-12-26T00:06:14.240Z,95316.56
2022-12-26T00:08:42.531Z,95296.28
2022-12-26T00:11:12.535Z,95311.13
2022-12-26T00:13:41.579Z,95318.41
2022-12-26T00:16:11.350Z,95303.63
2022-12-26T00:18:39.301Z,95303.84
2022-12-26T00:21:07.474Z,95305.59
2022-12-26T00:23:36.168Z,95313.16
2022-12-26T00:26:05.210Z,95311.50
2022-12-26T00:28:34.563Z,95307.81
2022-12-26T00:31:06.649Z,95316.88
2022-12-26T00:33:35.174Z,95313.81
2022-12-26T00:36:04.507Z,95299.66
2022-12-26T00:38:32.570Z,95314.63
2022-12-26T00:41:00.520Z,95315.06
2022-12-26T00:43:28.368Z,95322.09
2022-12-26T00:45:57.736Z,95323.47
2022-12-26T00:48:25.594Z,95316.09
2022-12-26T00:50:53.552Z,95319.91
2022-12-26T00:53:22.258Z,95320.56
2022-12-26T00:55:50.427Z,95317.06
2022-12-26T00:58:18.629Z,95327.28
2022-12-26T01:00:46.508Z,95322.34
2022-12-26T01:03:16.611Z,95328.16
2022-12-26T01:05:45.866Z,95326.56
2022-12-26T01:08:21.059Z,95325.16
2022-12-26T01:10:52.304Z,95330.81
2022-12-26T01:13:20.068Z,95337.69
2022-12-26T01:15:51.855Z,95331.59
2022-12-26T01:18:21.856Z,95330.09
2022-12-26T01:20:50.394Z,95333.50
2022-12-26T01:23:18.687Z,95330.50
2022-12-26T01:26:17.404Z,95340.38
2022-12-26T01:28:34.555Z,95336.06
2022-12-26T01:31:03.885Z,95341.09
2022-12-26T01:33:33.316Z,95342.63
2022-12-26T01:36:01.364Z,95328.41
2022-12-26T01:38:29.748Z,95338.63
2022-12-26T01:41:11.485Z,95333.00
2022-12-26T01:43:51.696Z,95340.56
2022-12-26T01:46:22.701Z,95348.50
2022-12-26T01:48:52.452Z,95350.44
2022-12-26T01:51:25.480Z,95336.34
2022-12-26T01:54:37.515Z,95360.41
2022-12-26T01:56:47.087Z,95350.09
2022-12-26T01:59:19.185Z,95359.78
2022-12-26T02:02:42.251Z,95359.16
2022-12-26T02:05:36.776Z,95360.22
2022-12-26T02:08:09.371Z,95365.06
2022-12-26T02:10:44.552Z,95368.34
2022-12-26T02:13:13.795Z,95368.25
2022-12-26T02:15:42.874Z,95362.22
2022-12-26T02:18:10.720Z,95356.66
2022-12-26T02:20:48.145Z,95346.88
2022-12-26T02:23:57.920Z,95347.97
2022-12-26T02:26:54.763Z,95353.38
2022-12-26T02:30:04.183Z,95350.41
2022-12-26T02:32:54.407Z,95356.31
2022-12-26T02:35:35.765Z,95362.03
2022-12-26T02:38:17.583Z,95353.41
2022-12-26T02:40:57.372Z,95350.88
2022-12-26T02:43:35.308Z,95360.69
2022-12-26T02:46:33.256Z,95350.16
2022-12-26T02:49:13.324Z,95360.13
2022-12-26T02:52:08.744Z,95355.50
2022-12-26T02:54:57.591Z,95356.84
2022-12-26T02:57:49.796Z,95357.91
2022-12-26T03:00:37.704Z,95345.66
2022-12-26T03:03:27.959Z,95339.06
2022-12-26T03:06:18.439Z,95355.09
2022-12-26T03:09:07.813Z,95348.03
2022-12-26T03:11:57.557Z,95342.13
2022-12-26T03:14:30.715Z,95328.19
2022-12-26T03:17:19.838Z,95339.94
2022-12-26T03:20:00.923Z,95338.72
2022-12-26T03:22:35.605Z,95349.28
2022-12-26T03:25:24.643Z,95346.13
2022-12-26T03:27:52.477Z,95351.06
2022-12-26T03:30:37.678Z,95348.34
2022-12-26T03:33:05.856Z,95348.84
2022-12-26T03:35:34.168Z,95346.31
2022-12-26T03:38:08.696Z,95352.94
2022-12-26T03:41:10.932Z,95348.38
2022-12-26T03:44:13.061Z,95341.72
2022-12-26T03:47:09.844Z,95348.59
2022-12-26T03:50:03.821Z,95332.16
2022-12-26T03:52:58.878Z,95343.25
2022-12-26T03:55:53.390Z,95338.94
2022-12-26T03:58:44.857Z,95324.97
2022-12-26T04:01:36.440Z,95338.59
2022-12-26T04:04:24.503Z,95342.28
2022-12-26T04:07:16.564Z,95348.81
2022-12-26T04:10:05.006Z,95340.22
2022-12-26T04:12:54.558Z,95351.44
2022-12-26T04:15:43.380Z,95351.31
2022-12-26T04:18:29.986Z,95350.63
2022-12-26T04:21:07.797Z,95355.47
2022-12-26T04:24:10.394Z,95364.97
2022-12-26T04:27:02.538Z,95378.84
2022-12-26T04:29:49.609Z,95375.31
2022-12-26T04:32:42.311Z,95365.78
2022-12-26T04:35:33.927Z,95375.22
2022-12-26T04:38:21.437Z,95370.28
2022-12-26T04:41:12.292Z,95373.00
2022-12-26T04:43:58.913Z,95364.03
2022-12-26T04:46:29.480Z,95370.28
2022-12-26T04:49:15.904Z,95370.19
2022-12-26T04:51:43.756Z,95372.09
2022-12-26T04:54:11.589Z,95371.94
2022-12-26T04:56:39.393Z,95369.38
2022-12-26T04:59:07.285Z,95370.91
2022-12-26T05:01:53.844Z,95370.19
2022-12-26T05:04:39.342Z,95378.72
2022-12-26T05:07:31.435Z,95371.03
2022-12-26T05:09:59.226Z,95364.25
2022-12-26T05:12:27.122Z,95367.06
2022-12-26T05:14:55.244Z,95365.91
2022-12-26T05:17:41.673Z,95374.66
2022-12-26T05:20:44.826Z,95372.38
2022-12-26T05:23:35.564Z,95380.03
2022-12-26T05:26:21.589Z,95375.63
2022-12-26T05:28:56.460Z,95393.09
2022-12-26T05:31:27.210Z,95399.69
2022-12-26T05:34:06.625Z,95405.38
2022-12-26T05:36:38.986Z,95404.63
2022-12-26T05:39:08.578Z,95408.50
2022-12-26T05:41:36.965Z,95401.50
2022-12-26T05:44:05.540Z,95402.13
2022-12-26T05:46:33.457Z,95401.91
2022-12-26T05:49:02.806Z,95404.00
2022-12-26T05:51:30.621Z,95404.78
2022-12-26T05:53:58.423Z,95414.22
2022-12-26T05:56:26.309Z,95416.72
2022-12-26T05:58:58.729Z,95412.22
2022-12-26T06:01:27.887Z,95409.69
2022-12-26T06:03:57.864Z,95410.72
2022-12-26T06:06:28.477Z,95411.22
2022-12-26T06:08:57.485Z,95410.81
2022-12-26T06:11:26.712Z,95399.78
2022-12-26T06:13:55.036Z,95407.72
2022-12-26T06:16:23.234Z,95410.53
2022-12-26T06:18:51.126Z,95394.34
2022-12-26T06:21:20.761Z,95398.50
2022-12-26T06:23:50.649Z,95400.59
2022-12-26T06:26:19.108Z,95403.81
2022-12-26T06:28:47.577Z,95404.53
2022-12-26T06:31:18.286Z,95398.22
2022-12-26T06:33:46.202Z,95392.31
2022-12-26T06:36:19.511Z,95387.66
2022-12-26T06:38:49.080Z,95384.94
2022-12-26T06:41:19.460Z,95373.94
2022-12-26T06:43:47.316Z,95376.13
2022-12-26T06:46:17.025Z,95356.28
2022-12-26T06:48:45.419Z,95362.72
2022-12-26T06:51:15.736Z,95359.28
2022-12-26T06:53:44.659Z,95370.38
2022-12-26T06:56:15.945Z,95363.22
2022-12-26T06:58:44.326Z,95374.34
2022-12-26T07:01:14.208Z,95379.22
2022-12-26T07:03:50.427Z,95381.28
2022-12-26T07:06:23.961Z,95393.00
2022-12-26T07:08:52.167Z,95386.97
2022-12-26T07:11:23.669Z,95389.41
2022-12-26T07:13:51.922Z,95382.97
2022-12-26T07:16:19.772Z,95389.28
2022-12-26T07:18:47.636Z,95384.63
2022-12-26T07:21:16.720Z,95372.63
2022-12-26T07:23:44.541Z,95369.56
2022-12-26T07:26:12.357Z,95376.94
2022-12-26T07:28:41.494Z,95378.41
2022-12-26T07:31:09.316Z,95387.59
2022-12-26T07:33:37.111Z,95392.28
2022-12-26T07:36:07.599Z,95383.44
2022-12-26T07:38:35.459Z,95392.38
2022-12-26T07:41:24.366Z,95381.69
2022-12-26T07:43:53.788Z,95393.78
2022-12-26T07:46:22.022Z,95405.25
2022-12-26T07:48:50.045Z,95399.34
2022-12-26T07:51:17.942Z,95401.97
2022-12-26T07:53:45.842Z,95399.03
2022-12-26T07:56:13.705Z,95401.84
2022-12-26T07:58:41.503Z,95412.47
2022-12-26T08:01:10.943Z,95406.56
2022-12-26T08:03:39.470Z,95407.88
2022-12-26T08:06:07.775Z,95410.44
2022-12-26T08:08:35.575Z,95410.97
2022-12-26T08:11:05.000Z,95399.56
2022-12-26T08:13:33.470Z,95400.41
2022-12-26T08:16:07.162Z,95406.75
2022-12-26T08:18:36.697Z,95404.72
2022-12-26T08:21:04.655Z,95407.19
2022-12-26T08:23:32.443Z,95401.81
2022-12-26T08:26:00.273Z,95395.72
2022-12-26T08:28:28.048Z,95391.09
2022-12-26T08:30:55.976Z,95398.59
2022-12-26T08:33:23.776Z,95400.91
2022-12-26T08:35:52.961Z,95403.91
2022-12-26T08:38:20.724Z,95400.00
2022-12-26T08:40:56.065Z,95397.50
2022-12-26T08:46:13.526Z,95394.03
2022-12-26T08:48:42.305Z,95399.09
2022-12-26T08:51:15.494Z,95394.94
2022-12-26T08:53:43.854Z,95392.31
2022-12-26T08:56:14.231Z,95389.94
2022-12-26T08:58:42.899Z,95374.72
2022-12-26T09:01:12.853Z,95386.06
2022-12-26T09:03:41.540Z,95382.91
2022-12-26T09:06:13.515Z,95387.69
2022-12-26T09:08:42.240Z,95381.19
2022-12-26T09:11:13.101Z,95384.13
2022-12-26T09:13:42.290Z,95374.06
2022-12-26T09:16:12.563Z,95377.06
2022-12-26T09:18:40.923Z,95374.91
2022-12-26T09:21:12.885Z,95374.34
2022-12-26T09:23:41.364Z,95370.19
2022-12-26T09:26:11.041Z,95377.50
2022-12-26T09:28:39.785Z,95373.94
2022-12-26T09:31:10.634Z,95381.25
2022-12-26T09:33:39.499Z,95378.69
2022-12-26T09:36:14.194Z,95374.34
2022-12-26T09:38:44.635Z,95385.81
2022-12-26T09:41:33.837Z,95378.13
2022-12-26T09:44:07.903Z,95380.06
2022-12-26T09:46:48.656Z,95383.63
2022-12-26T09:49:20.626Z,95388.97
2022-12-26T09:51:51.720Z,95390.97
2022-12-26T09:54:31.287Z,95393.53
2022-12-26T09:57:02.743Z,95383.25
2022-12-26T09:59:35.466Z,95389.38
2022-12-26T10:02:03.446Z,95388.19
2022-12-26T10:04:31.537Z,95372.94
2022-12-26T10:07:10.125Z,95389.72
2022-12-26T10:09:52.119Z,95382.59
2022-12-26T10:12:37.095Z,95367.34
2022-12-26T10:15:19.575Z,95369.53
2022-12-26T10:17:55.898Z,95371.72
2022-12-26T10:20:31.836Z,95368.72
2022-12-26T10:23:26.318Z,95354.66
2022-12-26T10:26:01.800Z,95351.84
2022-12-26T10:28:35.329Z,95348.22
2022-12-26T10:31:08.931Z,95349.50
2022-12-26T10:33:43.980Z,95353.41
2022-12-26T10:36:18.971Z,95349.34
2022-12-26T10:38:48.972Z,95345.44
2022-12-26T10:41:25.112Z,95350.84
2022-12-26T10:43:53.944Z,95345.50
2022-12-26T10:46:42.668Z,95353.25
2022-12-26T10:49:13.041Z,95349.66
2022-12-26T10:51:41.080Z,95356.00
2022-12-26T10:54:16.746Z,95360.25
2022-12-26T10:56:48.469Z,95356.75
2022-12-26T10:59:20.103Z,95347.84
2022-12-26T11:01:48.759Z,95354.38
2022-12-26T11:04:31.175Z,95356.91
2022-12-26T11:07:12.091Z,95353.56
2022-12-26T11:09:42.612Z,95346.22
2022-12-26T11:12:21.753Z,95341.84
2022-12-26T11:14:49.985Z,95356.94
2022-12-26T11:17:28.125Z,95349.19
2022-12-26T11:20:22.392Z,95348.78
2022-12-26T11:22:50.251Z,95346.84
2022-12-26T11:25:21.349Z,95356.44
2022-12-26T11:27:52.904Z,95349.91
2022-12-26T11:30:24.822Z,95349.94
2022-12-26T11:33:13.516Z,95362.44
2022-12-26T11:35:52.012Z,95362.66
2022-12-26T11:38:44.600Z,95374.53
2022-12-26T11:41:36.215Z,95370.56
2022-12-26T11:44:16.514Z,95364.59
2022-12-26T11:46:48.722Z,95372.53
2022-12-26T11:49:25.716Z,95363.63
2022-12-26T11:51:59.119Z,95364.44
2022-12-26T11:54:34.905Z,95374.56
2022-12-26T11:57:10.604Z,95380.09
2022-12-26T11:59:40.015Z,95375.16
2022-12-26T12:02:27.753Z,95380.09
2022-12-26T12:04:59.949Z,95380.50
2022-12-26T12:07:43.985Z,95400.13
2022-12-26T12:10:44.783Z,95392.56
2022-12-26T12:13:20.311Z,95401.00
2022-12-26T12:15:55.238Z,95433.94
2022-12-26T12:18:38.881Z,95419.94
2022-12-26T12:21:16.987Z,95444.16
2022-12-26T12:24:00.484Z,95443.56
2022-12-26T12:26:36.960Z,95463.06
2022-12-26T12:29:17.274Z,95439.50
2022-12-26T12:32:01.992Z,95436.31
2022-12-26T12:34:43.739Z,95437.00
2022-12-26T12:37:25.033Z,95421.94
2022-12-26T12:40:01.974Z,95430.44
2022-12-26T12:42:41.312Z,95419.22
2022-12-26T12:45:27.038Z,95416.78
2022-12-26T12:48:13.993Z,95420.59
2022-12-26T12:50:54.733Z,95440.06
2022-12-26T12:53:37.857Z,95435.66
2022-12-26T12:56:19.272Z,95454.72
2022-12-26T12:58:53.598Z,95443.06
2022-12-26T13:01:27.081Z,95453.31
2022-12-26T13:04:06.424Z,95452.25
2022-12-26T13:06:42.964Z,95443.72
2022-12-26T13:09:17.962Z,95442.84
2022-12-26T13:11:50.574Z,95433.34
2022-12-26T13:14:22.843Z,95417.09
2022-12-26T13:16:56.691Z,95440.84
2022-12-26T13:19:30.815Z,95419.31
2022-12-26T13:22:04.727Z,95424.50
2022-12-26T13:24:35.695Z,95430.50
2022-12-26T13:27:12.497Z,95434.19
2022-12-26T13:29:42.699Z,95446.88
2022-12-26T13:32:21.758Z,95461.00
2022-12-26T13:34:52.711Z,95440.09
2022-12-26T13:37:56.861Z,95442.41
2022-12-26T13:40:28.668Z,95451.88
2022-12-26T13:43:19.098Z,95446.19
2022-12-26T13:45:53.716Z,95440.72
2022-12-26T13:49:06.384Z,95441.19
2022-12-26T13:51:50.530Z,95456.28
2022-12-26T13:54:19.063Z,95461.56
2022-12-26T13:57:31.413Z,95454.75
2022-12-26T14:00:18.917Z,95457.50
2022-12-26T14:03:25.448Z,95450.56
2022-12-26T14:06:42.234Z,95452.84
2022-12-26T14:09:38.506Z,95465.53
2022-12-26T14:12:37.372Z,95464.47
2022-12-26T14:15:19.771Z,95474.34
2022-12-26T14:17:56.411Z,95469.50
2022-12-26T14:20:39.629Z,95482.13
2022-12-26T14:23:22.180Z,95474.88
2022-12-26T14:25:58.414Z,95500.97
2022-12-26T14:28:30.290Z,95492.13
2022-12-26T14:31:12.149Z,95500.53
2022-12-26T14:33:48.240Z,95502.19
2022-12-26T14:36:25.404Z,95492.91
2022-12-26T14:39:00.588Z,95499.97
2022-12-26T14:42:33.971Z,95507.94
2022-12-26T14:45:02.734Z,95485.13
2022-12-26T14:47:38.641Z,95501.34
2022-12-26T14:50:36.051Z,95504.06
2022-12-26T14:53:28.789Z,95504.69
2022-12-26T14:56:01.823Z,95505.81
2022-12-26T14:58:40.831Z,95501.69
2022-12-26T15:01:50.239Z,95495.25
2022-12-26T15:04:32.358Z,95498.50
2022-12-26T15:07:33.525Z,95499.28
2022-12-26T15:10:30.521Z,95491.84
2022-12-26T15:13:25.723Z,95490.38
2022-12-26T15:16:11.292Z,95476.28
2022-12-26T15:19:12.334Z,95480.25
2022-12-26T15:22:01.443Z,95488.16
2022-12-26T15:25:19.926Z,95477.47
2022-12-26T15:28:15.500Z,95479.00
2022-12-26T15:31:04.328Z,95480.84
2022-12-26T15:33:40.351Z,95489.09
2022-12-26T15:36:20.518Z,95484.31
2022-12-26T15:38:57.933Z,95490.56
2022-12-26T15:41:34.105Z,95490.72
2022-12-26T15:44:16.197Z,95481.81
2022-12-26T15:46:48.565Z,95485.50
2022-12-26T15:49:31.264Z,95488.06
2022-12-26T15:52:07.192Z,95502.78
2022-12-26T15:55:04.673Z,95497.03
2022-12-26T15:57:45.336Z,95505.66
2022-12-26T16:00:18.298Z,95484.09
2022-12-26T16:02:55.250Z,95496.88
2022-12-26T16:05:40.639Z,95498.22
2022-12-26T16:08:32.379Z,95500.94
2022-12-26T16:11:15.673Z,95497.94
2022-12-26T16:13:58.370Z,95490.25
2022-12-26T16:16:29.851Z,95497.81
2022-12-26T16:18:58.163Z,95497.03
2022-12-26T16:21:47.583Z,95491.72
2022-12-26T16:24:18.386Z,95481.41
2022-12-26T16:26:47.734Z,95495.16
2022-12-26T16:29:21.458Z,95483.66
2022-12-26T16:31:49.243Z,95475.69
2022-12-26T16:34:21.603Z,95462.28
2022-12-26T16:36:51.786Z,95459.69
2022-12-26T16:39:23.165Z,95455.81
2022-12-26T16:42:03.098Z,95463.88
2022-12-26T16:44:36.355Z,95471.22
2022-12-26T16:47:08.272Z,95477.78
2022-12-26T16:49:36.931Z,95476.50
2022-12-26T16:52:08.010Z,95462.63
2022-12-26T16:54:42.869Z,95460.38
2022-12-26T16:57:15.866Z,95444.44
2022-12-26T16:59:52.095Z,95413.16
2022-12-26T17:02:24.050Z,95405.84
2022-12-26T17:04:58.528Z,95415.25
2022-12-26T17:07:28.773Z,95403.00
2022-12-26T17:09:59.338Z,95404.13
2022-12-26T17:12:32.485Z,95437.50
2022-12-26T17:15:02.159Z,95416.56
2022-12-26T17:17:35.514Z,95426.13
2022-12-26T17:20:44.767Z,95433.47
2022-12-26T17:23:36.169Z,95443.34
2022-12-26T17:26:25.469Z,95433.28
2022-12-26T17:28:53.677Z,95442.88
2022-12-26T17:31:29.913Z,95445.97
2022-12-26T17:33:58.540Z,95450.38
2022-12-26T17:37:17.161Z,95447.81
2022-12-26T17:39:23.345Z,95475.25
2022-12-26T17:41:52.968Z,95468.72
2022-12-26T17:44:38.614Z,95468.56
2022-12-26T17:47:16.625Z,95480.81
2022-12-26T17:49:44.519Z,95473.97
2022-12-26T17:52:13.902Z,95473.97
2022-12-26T17:54:43.509Z,95473.00
2022-12-26T17:57:17.918Z,95469.31
2022-12-26T17:59:45.801Z,95454.47
2022-12-26T18:02:13.779Z,95466.72
2022-12-26T18:04:42.047Z,95469.53
2022-12-26T18:07:13.257Z,95490.44
2022-12-26T18:09:41.336Z,95485.31
2022-12-26T18:12:13.325Z,95487.38
2022-12-26T18:14:41.237Z,95492.31
2022-12-26T18:17:09.428Z,95494.25
2022-12-26T18:19:37.258Z,95487.84
2022-12-26T18:22:12.298Z,95486.75
2022-12-26T18:24:40.045Z,95496.63
2022-12-26T18:27:08.010Z,95493.28
2022-12-26T18:29:40.656Z,95485.44
2022-12-26T18:32:20.637Z,95477.78
2022-12-26T18:34:48.462Z,95459.63
2022-12-26T18:37:16.443Z,95478.94
2022-12-26T18:39:44.379Z,95501.44
2022-12-26T18:42:13.697Z,95497.13
2022-12-26T18:44:44.056Z,95496.97
2022-12-26T18:47:14.130Z,95494.56
2022-12-26T18:49:42.352Z,95498.88
2022-12-26T18:52:10.786Z,95504.97
2022-12-26T18:54:45.453Z,95509.25
2022-12-26T18:57:18.415Z,95528.91
2022-12-26T18:59:48.449Z,95519.94
2022-12-26T19:02:18.095Z,95506.22
2022-12-26T19:04:48.298Z,95515.78
2022-12-26T19:07:18.063Z,95530.00
2022-12-26T19:09:46.694Z,95535.38
2022-12-26T19:12:15.168Z,95524.84
2022-12-26T19:14:45.020Z,95531.09
2022-12-26T19:17:14.704Z,95540.97
2022-12-26T19:19:42.900Z,95515.59
2022-12-26T19:22:11.084Z,95513.03
2022-12-26T19:24:39.010Z,95508.91
2022-12-26T19:27:06.879Z,95527.91
2022-12-26T19:29:34.726Z,95524.72
2022-12-26T19:32:02.540Z,95496.78
2022-12-26T19:34:31.765Z,95512.75
2022-12-26T19:36:59.548Z,95511.03
2022-12-26T19:39:27.381Z,95525.22
2022-12-26T19:41:55.156Z,95536.84
2022-12-26T19:44:23.116Z,95518.41
2022-12-26T19:46:50.878Z,95528.56
2022-12-26T19:49:40.068Z,95537.81
2022-12-26T19:52:07.837Z,95536.56
2022-12-26T19:54:35.679Z,95536.56
2022-12-26T19:57:03.618Z,95527.13
2022-12-26T19:59:31.424Z,95535.72
2022-12-26T20:01:59.580Z,95529.03
2022-12-26T20:04:27.539Z,95519.03
2022-12-26T20:06:59.603Z,95521.53
2022-12-26T20:09:28.078Z,95535.09
2022-12-26T20:11:56.280Z,95530.78
2022-12-26T20:14:26.711Z,95535.22
2022-12-26T20:17:06.020Z,95528.81
2022-12-26T20:19:35.162Z,95533.22
2022-12-26T20:22:05.283Z,95518.88
2022-12-26T20:24:33.201Z,95520.13
2022-12-26T20:27:01.025Z,95523.44
2022-12-26T20:29:31.537Z,95506.19
2022-12-26T20:31:59.895Z,95507.25
2022-12-26T20:34:27.679Z,95500.72
2022-12-26T20:36:55.522Z,95511.03
2022-12-26T20:39:25.553Z,95516.34
2022-12-26T20:41:53.438Z,95508.16
2022-12-26T20:44:21.553Z,95513.09
2022-12-26T20:46:49.342Z,95507.47
2022-12-26T20:49:17.212Z,95524.38
2022-12-26T20:51:45.734Z,95524.69
2022-12-26T20:54:15.363Z,95529.53
2022-12-26T20:56:45.023Z,95539.03
2022-12-26T20:59:13.019Z,95553.81
2022-12-26T21:01:41.234Z,95549.00
2022-12-26T21:04:10.141Z,95548.84
2022-12-26T21:06:39.758Z,95577.84
2022-12-26T21:09:07.961Z,95556.47
2022-12-26T21:11:38.608Z,95580.97
2022-12-26T21:14:11.392Z,95581.22
2022-12-26T21:16:41.670Z,95593.69
2022-12-26T21:19:15.109Z,95600.50
2022-12-26T21:21:44.938Z,95627.66
2022-12-26T21:24:15.091Z,95629.22
2022-12-26T21:26:43.659Z,95646.00
2022-12-26T21:29:15.662Z,95637.44
2022-12-26T21:31:43.933Z,95643.75
2022-12-26T21:34:13.574Z,95638.66
2022-12-26T21:36:41.471Z,95644.50
2022-12-26T21:39:11.296Z,95636.00
2022-12-26T21:41:39.326Z,95652.88
2022-12-26T21:44:07.114Z,95645.38
2022-12-26T21:46:36.691Z,95651.28
2022-12-26T21:49:04.460Z,95658.25
2022-12-26T21:51:32.314Z,95667.81
2022-12-26T21:54:13.969Z,95659.66
2022-12-26T21:56:41.728Z,95646.63
2022-12-26T21:59:23.902Z,95653.66
2022-12-26T22:01:53.112Z,95651.88
2022-12-26T22:04:20.007Z,95647.91
2022-12-26T22:06:50.341Z,95665.41
2022-12-26T22:09:18.885Z,95656.38
2022-12-26T22:12:04.200Z,95676.00
2022-12-26T22:14:32.073Z,95679.47
2022-12-26T22:17:01.204Z,95669.16
2022-12-26T22:19:29.182Z,95682.06
2022-12-26T22:21:57.043Z,95679.53
2022-12-26T22:24:24.842Z,95680.53
2022-12-26T22:26:53.554Z,95675.75
2022-12-26T22:29:21.394Z,95673.03
2022-12-26T22:31:49.251Z,95666.53
2022-12-26T22:34:18.408Z,95676.53
2022-12-26T22:36:46.200Z,95670.34
2022-12-26T22:39:17.080Z,95669.38
2022-12-26T22:41:45.588Z,95672.56
2022-12-26T22:44:13.574Z,95685.94
2022-12-26T22:46:41.898Z,95683.22
2022-12-26T22:49:10.172Z,95682.78
2022-12-26T22:51:39.480Z,95683.91
2022-12-26T22:54:07.334Z,95687.25
2022-12-26T22:56:35.209Z,95682.78
2022-12-26T22:59:03.272Z,95686.28
2022-12-26T23:01:31.391Z,95672.28
2022-12-26T23:04:01.492Z,95680.44
2022-12-26T23:06:31.503Z,95671.66
2022-12-26T23:09:03.530Z,95680.88
2022-12-26T23:11:35.002Z,95669.56
2022-12-26T23:14:04.875Z,95679.00
2022-12-26T23:16:37.322Z,95668.63
2022-12-26T23:19:32.602Z,95671.19
2022-12-26T23:22:02.373Z,95678.66
2022-12-26T23:24:33.064Z,95686.94
2022-12-26T23:27:18.880Z,95704.59
2022-12-26T23:30:04.475Z,95711.59
2022-12-26T23:32:32.495Z,95713.97
2022-12-26T23:35:00.320Z,95715.25
2022-12-26T23:37:28.205Z,95717.63
2022-12-26T23:39:57.543Z,95737.06
2022-12-26T23:42:25.795Z,95730.25
2022-12-26T23:44:53.581Z,95736.47
2022-12-26T23:47:21.417Z,95731.81
2022-12-26T23:49:49.218Z,95735.63
2022-12-26T23:52:17.000Z,95745.19
2022-12-26T23:54:44.769Z,95750.16
2022-12-26T23:57:13.968Z,95741.25
2022-12-26T23:59:41.868Z,95771.59
